Terminal Aerodrome Forecast
Issued by NWS

Home | Current Version | Previous Version | Text Only | Print | Product List | Glossary On
Versions: 1 2 3 4 5 6 7 8 9 10 11 12
000
FTAK31 PAJN 292332
TAFAYA
TAF
PAYA 292332Z 3000/3024 VRB03KT P6SM SKC WS020/04025KT
     FM300500 VRB03KT P6SM SKC
      AMD LTD TO CLD VIS AND WIND 3001/3009=

USA.gov is the U.S. government's official web portal to all federal, state and local government web resources and services.